createdAt,value
2019-04-10T00:00:49.273Z,80.58
2019-04-10T00:01:49.272Z,79.55
2019-04-10T00:02:50.102Z,79.75
2019-04-10T00:03:50.278Z,80.27
2019-04-10T00:04:49.462Z,80.17
2019-04-10T00:05:50.012Z,80.47
2019-04-10T00:06:50.062Z,81.50
2019-04-10T00:07:50.011Z,81.20
2019-04-10T00:08:49.174Z,80.37
2019-04-10T00:09:49.543Z,79.86
2019-04-10T00:10:49.150Z,79.66
2019-04-10T00:11:49.389Z,79.75
2019-04-10T00:12:49.768Z,79.55
2019-04-10T00:13:49.118Z,80.37
2019-04-10T00:14:49.115Z,80.78
2019-04-10T00:15:49.088Z,79.24
2019-04-10T00:16:49.082Z,80.07
2019-04-10T00:17:49.330Z,80.10
2019-04-10T00:18:49.059Z,79.90
2019-04-10T00:19:49.065Z,80.17
2019-04-10T00:20:49.225Z,79.59
2019-04-10T00:21:49.406Z,79.24
2019-04-10T00:22:49.039Z,78.77
2019-04-10T00:23:49.231Z,79.14
2019-04-10T00:24:48.994Z,78.87
2019-04-10T00:25:48.991Z,79.35
2019-04-10T00:26:49.916Z,79.35
2019-04-10T00:27:48.980Z,79.80
2019-04-10T00:28:49.749Z,80.27
2019-04-10T00:29:48.934Z,80.68
2019-04-10T00:30:49.373Z,79.86
2019-04-10T00:31:48.913Z,80.10
2019-04-10T00:32:49.082Z,80.27
2019-04-10T00:33:49.297Z,79.24
2019-04-10T00:34:49.728Z,79.35
2019-04-10T00:35:49.877Z,79.55
2019-04-10T00:36:49.077Z,80.17
2019-04-10T00:37:49.206Z,79.14
2019-04-10T00:38:48.856Z,79.96
2019-04-10T00:39:48.825Z,79.75
2019-04-10T00:40:49.870Z,80.27
2019-04-10T00:41:48.800Z,80.47
2019-04-10T00:42:49.535Z,78.02
2019-04-10T00:43:48.998Z,78.02
2019-04-10T00:44:48.776Z,78.25
2019-04-10T00:45:49.393Z,78.56
2019-04-10T00:46:48.757Z,78.74
2019-04-10T00:47:48.732Z,79.86
2019-04-10T00:48:48.743Z,78.05
2019-04-10T00:49:48.721Z,78.67
2019-04-10T00:50:48.779Z,79.28
2019-04-10T00:51:48.722Z,78.74
2019-04-10T00:52:48.678Z,79.59
2019-04-10T00:53:49.659Z,78.97
2019-04-10T00:54:48.970Z,79.28
2019-04-10T00:55:48.649Z,78.25
2019-04-10T00:56:48.635Z,79.08
2019-04-10T00:57:49.758Z,79.59
2019-04-10T00:58:48.631Z,79.38
2019-04-10T00:59:48.603Z,79.59
2019-04-10T01:00:50.113Z,78.97
2019-04-10T01:01:48.597Z,78.02
2019-04-10T01:02:49.169Z,79.28
2019-04-10T01:03:50.621Z,79.38
2019-04-10T01:04:48.842Z,78.05
2019-04-10T01:05:49.211Z,78.77
2019-04-10T01:06:48.524Z,78.77
2019-04-10T01:07:48.655Z,78.77
2019-04-10T01:08:48.908Z,79.38
2019-04-10T01:09:48.494Z,78.77
2019-04-10T01:10:48.501Z,78.36
2019-04-10T01:11:49.677Z,78.77
2019-04-10T01:12:48.465Z,79.28
2019-04-10T01:13:50.129Z,78.87
2019-04-10T01:14:48.449Z,77.03
2019-04-10T01:15:49.046Z,77.44
2019-04-10T01:16:49.363Z,77.33
2019-04-10T01:17:48.639Z,77.74
2019-04-10T01:18:48.398Z,77.33
2019-04-10T01:19:48.395Z,77.13
2019-04-10T01:20:48.368Z,76.10
2019-04-10T01:21:48.586Z,76.72
2019-04-10T01:22:48.344Z,76.20
2019-04-10T01:23:49.027Z,75.69
2019-04-10T01:24:48.339Z,77.54
2019-04-10T01:25:48.427Z,76.72
2019-04-10T01:26:48.300Z,76.51
2019-04-10T01:27:48.305Z,77.44
2019-04-10T01:28:49.210Z,77.74
2019-04-10T01:29:49.383Z,76.51
2019-04-10T01:30:48.681Z,76.31
2019-04-10T01:31:48.250Z,76.00
2019-04-10T01:32:48.234Z,77.44
2019-04-10T01:33:49.193Z,77.33
2019-04-10T01:34:48.236Z,77.44
2019-04-10T01:35:48.799Z,76.04
2019-04-10T01:36:48.198Z,76.72
2019-04-10T01:37:53.564Z,77.06
2019-04-10T01:38:49.515Z,76.86
2019-04-10T01:39:48.626Z,76.96
2019-04-10T01:40:48.146Z,76.82
2019-04-10T01:41:48.136Z,77.74
2019-04-10T01:42:59.973Z,75.93
2019-04-10T01:43:49.117Z,76.86
2019-04-10T01:44:49.034Z,75.73
2019-04-10T01:45:48.114Z,76.62
2019-04-10T01:46:48.661Z,76.45
2019-04-10T01:47:48.077Z,77.26
2019-04-10T01:48:48.938Z,76.04
2019-04-10T01:49:48.298Z,76.45
2019-04-10T01:50:48.056Z,76.04
2019-04-10T01:51:48.029Z,76.24
2019-04-10T01:52:48.928Z,75.73
2019-04-10T01:53:48.237Z,75.52
2019-04-10T01:54:49.186Z,75.83
2019-04-10T01:55:48.001Z,77.37
2019-04-10T01:56:48.007Z,76.45
2019-04-10T01:57:48.427Z,76.55
2019-04-10T01:58:47.960Z,75.52
2019-04-10T01:59:47.962Z,75.11
2019-04-10T02:00:48.242Z,76.14
2019-04-10T02:01:48.378Z,75.93
2019-04-10T02:02:47.910Z,75.62
2019-04-10T02:03:47.895Z,75.42
2019-04-10T02:04:49.798Z,74.40
2019-04-10T02:05:47.893Z,76.34
2019-04-10T02:06:47.864Z,75.62
2019-04-10T02:07:59.624Z,76.45
2019-04-10T02:08:49.705Z,76.34
2019-04-10T02:09:47.828Z,76.34
2019-04-10T02:10:48.143Z,75.83
2019-04-10T02:11:48.173Z,76.04
2019-04-10T02:12:47.796Z,76.34
2019-04-10T02:13:47.784Z,74.91
2019-04-10T02:14:48.655Z,74.29
2019-04-10T02:15:47.779Z,73.68
2019-04-10T02:16:47.759Z,74.19
2019-04-10T02:17:48.716Z,74.22
2019-04-10T02:18:47.932Z,74.29
2019-04-10T02:19:48.224Z,73.40
2019-04-10T02:20:47.728Z,74.32
2019-04-10T02:21:47.802Z,74.02
2019-04-10T02:22:47.970Z,74.60
2019-04-10T02:23:47.674Z,74.80
2019-04-10T02:24:47.665Z,74.22
2019-04-10T02:25:47.678Z,74.40
2019-04-10T02:26:47.738Z,74.22
2019-04-10T02:27:48.743Z,73.40
2019-04-10T02:28:47.619Z,72.78
2019-04-10T02:29:48.122Z,74.32
2019-04-10T02:30:47.963Z,73.71
2019-04-10T02:31:48.480Z,72.78
2019-04-10T02:32:48.653Z,73.71
2019-04-10T02:33:47.561Z,72.58
2019-04-10T02:34:48.941Z,73.19
2019-04-10T02:35:47.913Z,74.32
2019-04-10T02:36:48.860Z,73.30
2019-04-10T02:37:51.047Z,73.50
2019-04-10T02:38:59.483Z,74.02
2019-04-10T02:39:52.871Z,73.61
2019-04-10T02:40:50.041Z,74.02
2019-04-10T02:41:47.608Z,72.61
2019-04-10T02:42:48.852Z,72.48
2019-04-10T02:43:47.537Z,72.38
2019-04-10T02:44:48.357Z,72.89
2019-04-10T02:45:47.431Z,72.68
2019-04-10T02:46:47.589Z,72.58
2019-04-10T02:47:47.615Z,71.89
2019-04-10T02:48:47.711Z,72.41
2019-04-10T02:49:49.034Z,73.30
2019-04-10T02:50:47.375Z,72.31
2019-04-10T02:51:47.651Z,71.17
2019-04-10T02:52:48.819Z,72.00
2019-04-10T02:53:48.072Z,71.97
2019-04-10T02:54:47.332Z,72.00
2019-04-10T02:55:47.574Z,71.79
2019-04-10T02:56:47.916Z,72.20
2019-04-10T02:57:47.354Z,73.02
2019-04-10T02:58:49.087Z,72.61
2019-04-10T02:59:47.273Z,73.02
2019-04-10T03:00:48.808Z,72.20
2019-04-10T03:01:47.478Z,71.79
2019-04-10T03:02:47.916Z,71.59
2019-04-10T03:03:47.247Z,71.48
2019-04-10T03:04:48.923Z,72.10
2019-04-10T03:05:48.713Z,71.17
2019-04-10T03:06:47.250Z,71.17
2019-04-10T03:07:48.341Z,71.28
2019-04-10T03:09:05.994Z,71.48
2019-04-10T03:10:00.533Z,72.41
2019-04-10T03:10:53.361Z,70.97
2019-04-10T03:11:49.710Z,71.28
2019-04-10T03:12:48.446Z,70.66
2019-04-10T03:13:47.312Z,71.00
2019-04-10T03:14:47.627Z,70.15
2019-04-10T03:15:47.688Z,71.17
2019-04-10T03:16:47.907Z,70.28
2019-04-10T03:17:48.247Z,71.00
2019-04-10T03:18:47.324Z,70.90
2019-04-10T03:19:47.052Z,70.49
2019-04-10T03:20:47.045Z,71.11
2019-04-10T03:21:47.147Z,69.87
2019-04-10T03:22:47.247Z,70.39
2019-04-10T03:23:47.550Z,70.90
2019-04-10T03:24:46.997Z,71.41
2019-04-10T03:25:46.986Z,69.77
2019-04-10T03:26:47.986Z,70.70
2019-04-10T03:27:46.980Z,70.18
2019-04-10T03:28:47.193Z,70.70
2019-04-10T03:29:46.946Z,71.00
2019-04-10T03:30:48.782Z,71.00
2019-04-10T03:31:47.796Z,70.90
2019-04-10T03:32:51.668Z,71.00
2019-04-10T03:33:49.832Z,69.87
2019-04-10T03:34:48.398Z,70.70
2019-04-10T03:35:47.107Z,69.05
2019-04-10T03:36:47.586Z,69.56
2019-04-10T03:37:46.876Z,69.87
2019-04-10T03:38:55.462Z,70.18
2019-04-10T03:39:48.934Z,70.08
2019-04-10T03:40:47.922Z,71.11
2019-04-10T03:41:46.826Z,70.59
2019-04-10T03:42:47.429Z,69.56
2019-04-10T03:43:46.912Z,69.46
2019-04-10T03:44:47.150Z,69.87
2019-04-10T03:45:46.798Z,69.98
2019-04-10T03:46:46.978Z,71.00
2019-04-10T03:47:47.362Z,71.04
2019-04-10T03:48:47.349Z,70.70
2019-04-10T03:49:46.731Z,70.11
2019-04-10T03:50:46.710Z,68.64
2019-04-10T03:51:47.090Z,68.67
2019-04-10T03:52:46.695Z,70.01
2019-04-10T03:53:46.710Z,69.87
2019-04-10T03:54:46.664Z,69.70
2019-04-10T03:55:47.335Z,70.42
2019-04-10T03:56:47.848Z,69.90
2019-04-10T03:57:46.944Z,70.52
2019-04-10T03:58:47.503Z,68.98
2019-04-10T03:59:47.573Z,68.43
2019-04-10T04:00:46.759Z,69.98
2019-04-10T04:01:47.232Z,70.28
2019-04-10T04:02:46.579Z,70.70
2019-04-10T04:03:46.582Z,69.90
2019-04-10T04:04:46.562Z,70.32
2019-04-10T04:05:46.765Z,69.60
2019-04-10T04:06:46.533Z,70.11
2019-04-10T04:07:46.635Z,69.18
2019-04-10T04:08:46.531Z,69.80
2019-04-10T04:09:46.499Z,68.05
2019-04-10T04:10:46.488Z,69.80
2019-04-10T04:11:46.485Z,69.70
2019-04-10T04:12:46.764Z,68.77
2019-04-10T04:13:46.477Z,67.44
2019-04-10T04:14:46.466Z,68.26
2019-04-10T04:15:46.430Z,68.46
2019-04-10T04:16:47.062Z,68.05
2019-04-10T04:17:46.555Z,68.05
2019-04-10T04:18:46.419Z,68.16
2019-04-10T04:19:46.397Z,69.80
2019-04-10T04:20:47.242Z,69.29
2019-04-10T04:21:46.381Z,68.70
2019-04-10T04:22:47.452Z,69.29
2019-04-10T04:23:46.827Z,68.57
2019-04-10T04:24:46.369Z,69.39
2019-04-10T04:25:46.321Z,68.98
2019-04-10T04:26:46.567Z,68.37
2019-04-10T04:27:46.408Z,69.18
2019-04-10T04:28:46.311Z,69.63
2019-04-10T04:29:47.463Z,68.77
2019-04-10T04:30:46.265Z,69.42
2019-04-10T04:31:46.377Z,69.01
2019-04-10T04:32:46.244Z,69.94
2019-04-10T04:33:46.907Z,69.53
2019-04-10T04:34:47.368Z,69.42
2019-04-10T04:35:47.209Z,68.40
2019-04-10T04:36:48.780Z,69.12
2019-04-10T04:37:46.366Z,68.19
2019-04-10T04:38:46.178Z,69.32
2019-04-10T04:39:46.230Z,67.06
2019-04-10T04:40:46.372Z,68.70
2019-04-10T04:41:46.144Z,68.60
2019-04-10T04:42:47.072Z,68.60
2019-04-10T04:43:47.625Z,68.40
2019-04-10T04:44:46.141Z,68.43
2019-04-10T04:45:46.319Z,68.29
2019-04-10T04:46:46.093Z,67.98
2019-04-10T04:47:46.102Z,69.35
2019-04-10T04:48:46.068Z,68.08
2019-04-10T04:49:46.748Z,68.80
2019-04-10T04:50:46.052Z,68.63
2019-04-10T04:51:46.035Z,69.73
2019-04-10T04:52:46.030Z,67.50
2019-04-10T04:53:46.258Z,68.43
2019-04-10T04:54:46.019Z,67.50
2019-04-10T04:55:46.973Z,68.12
2019-04-10T04:56:46.353Z,69.04
2019-04-10T04:57:46.907Z,68.32
2019-04-10T04:58:45.958Z,68.87
2019-04-10T04:59:45.962Z,69.25
2019-04-10T05:00:46.016Z,68.77
2019-04-10T05:01:46.831Z,69.35
2019-04-10T05:02:46.948Z,70.07
2019-04-10T05:03:46.384Z,70.18
2019-04-10T05:04:45.912Z,70.38
2019-04-10T05:05:45.893Z,69.25
2019-04-10T05:06:45.895Z,68.63
2019-04-10T05:07:58.405Z,69.35
2019-04-10T05:08:46.860Z,68.84
2019-04-10T05:09:45.993Z,68.43
2019-04-10T05:10:45.846Z,69.46
2019-04-10T05:11:46.856Z,70.59
2019-04-10T05:12:45.803Z,70.28
2019-04-10T05:13:46.743Z,70.79
2019-04-10T05:14:46.182Z,70.31
2019-04-10T05:15:45.965Z,68.87
2019-04-10T05:16:45.771Z,68.87
2019-04-10T05:17:45.799Z,68.53
2019-04-10T05:18:45.739Z,70.59
2019-04-10T05:19:46.801Z,68.77
2019-04-10T05:20:49.697Z,68.43
2019-04-10T05:21:47.685Z,69.04
2019-04-10T05:22:45.717Z,69.46
2019-04-10T05:23:45.698Z,69.46
2019-04-10T05:24:46.697Z,69.38
2019-04-10T05:25:45.681Z,69.49
2019-04-10T05:26:45.677Z,69.04
2019-04-10T05:27:45.640Z,70.83
2019-04-10T05:28:46.459Z,69.15
2019-04-10T05:29:45.619Z,69.79
2019-04-10T05:30:45.624Z,69.18
2019-04-10T05:31:46.615Z,69.97
2019-04-10T05:32:45.591Z,69.76
2019-04-10T05:33:45.572Z,69.28
2019-04-10T05:34:46.638Z,69.70
2019-04-10T05:35:45.553Z,70.52
2019-04-10T05:36:45.561Z,70.31
2019-04-10T05:37:45.732Z,70.00
2019-04-10T05:38:46.007Z,69.49
2019-04-10T05:39:50.431Z,70.62
2019-04-10T05:40:46.503Z,69.87
2019-04-10T05:41:46.876Z,69.90
2019-04-10T05:42:45.476Z,70.07
2019-04-10T05:43:45.477Z,71.20
2019-04-10T05:44:45.465Z,69.04
2019-04-10T05:45:46.402Z,69.59
2019-04-10T05:46:46.534Z,70.07
2019-04-10T05:47:46.454Z,70.18
2019-04-10T05:48:46.210Z,70.28
2019-04-10T05:49:45.422Z,70.59
2019-04-10T05:50:54.885Z,71.10
2019-04-10T05:51:46.396Z,71.41
2019-04-10T05:52:45.385Z,70.28
2019-04-10T05:53:45.359Z,69.35
2019-04-10T05:54:45.346Z,69.76
2019-04-10T05:55:45.343Z,70.83
2019-04-10T05:56:45.325Z,68.63
2019-04-10T05:57:45.333Z,68.56
2019-04-10T05:58:45.302Z,68.43
2019-04-10T05:59:45.918Z,68.25
2019-04-10T06:00:45.290Z,70.10
2019-04-10T06:01:45.678Z,70.38
2019-04-10T06:02:45.288Z,70.21
2019-04-10T06:03:45.716Z,69.97
2019-04-10T06:04:45.473Z,70.42
2019-04-10T06:05:45.224Z,71.41
2019-04-10T06:06:46.409Z,69.90
2019-04-10T06:07:45.467Z,69.04
2019-04-10T06:08:45.196Z,69.66
2019-04-10T06:09:54.087Z,70.59
2019-04-10T06:10:46.171Z,70.48
2019-04-10T06:11:45.762Z,70.28
2019-04-10T06:12:45.172Z,69.87
2019-04-10T06:13:45.243Z,70.28
2019-04-10T06:14:46.271Z,70.69
2019-04-10T06:15:45.447Z,70.62
2019-04-10T06:16:45.139Z,68.98
2019-04-10T06:17:45.108Z,68.56
2019-04-10T06:18:45.211Z,70.07
2019-04-10T06:19:45.083Z,69.76
2019-04-10T06:20:45.324Z,70.69
2019-04-10T06:21:46.221Z,71.31
2019-04-10T06:22:45.520Z,70.38
2019-04-10T06:23:45.058Z,70.48
2019-04-10T06:24:45.018Z,70.18
2019-04-10T06:25:45.775Z,70.21
2019-04-10T06:26:45.872Z,70.07
2019-04-10T06:27:45.095Z,70.18
2019-04-10T06:28:44.972Z,70.21
2019-04-10T06:29:46.175Z,70.07
2019-04-10T06:30:44.967Z,70.59
2019-04-10T06:31:45.150Z,70.62
2019-04-10T06:32:45.465Z,71.62
2019-04-10T06:33:44.918Z,71.72
2019-04-10T06:34:45.982Z,71.41
2019-04-10T06:35:44.911Z,71.24
2019-04-10T06:36:45.922Z,70.48
2019-04-10T06:37:44.882Z,70.83
2019-04-10T06:38:45.385Z,71.24
2019-04-10T06:39:45.988Z,69.46
2019-04-10T06:40:46.021Z,69.07
2019-04-10T06:41:44.838Z,70.69
2019-04-10T06:42:50.287Z,71.10
2019-04-10T06:43:45.833Z,71.20
2019-04-10T06:44:45.983Z,71.41
2019-04-10T06:45:44.786Z,71.14
2019-04-10T06:46:44.786Z,70.79
2019-04-10T06:47:44.762Z,70.38
2019-04-10T06:48:44.769Z,70.07
2019-04-10T06:49:45.664Z,71.51
2019-04-10T06:50:45.892Z,71.03
2019-04-10T06:51:45.135Z,71.82
2019-04-10T06:52:45.049Z,71.10
2019-04-10T06:53:44.976Z,70.83
2019-04-10T06:54:44.897Z,70.28
2019-04-10T06:55:44.925Z,71.41
2019-04-10T06:56:45.351Z,71.20
2019-04-10T06:57:49.160Z,72.24
2019-04-10T06:58:45.663Z,71.41
2019-04-10T06:59:44.632Z,71.00
2019-04-10T07:00:48.609Z,70.28
2019-04-10T07:01:51.427Z,69.66
2019-04-10T07:02:46.285Z,70.59
2019-04-10T07:03:52.834Z,70.10
2019-04-10T07:04:52.420Z,69.97
2019-04-10T07:06:00.451Z,70.90
2019-04-10T07:06:57.098Z,70.83
2019-04-10T07:07:51.985Z,70.93
2019-04-10T07:08:47.946Z,70.31
2019-04-10T07:09:45.366Z,71.10
2019-04-10T07:10:52.061Z,71.10
2019-04-10T07:11:47.948Z,70.59
2019-04-10T07:12:45.762Z,71.44
2019-04-10T07:13:44.933Z,70.83
2019-04-10T07:14:48.296Z,70.93
2019-04-10T07:15:46.879Z,70.79
2019-04-10T07:16:44.460Z,71.41
2019-04-10T07:17:45.026Z,70.62
2019-04-10T07:18:47.788Z,70.28
2019-04-10T07:19:45.960Z,69.87
2019-04-10T07:20:44.407Z,71.44
2019-04-10T07:21:44.404Z,70.07
2019-04-10T07:22:46.578Z,70.59
2019-04-10T07:23:44.988Z,70.69
2019-04-10T07:24:44.376Z,71.92
2019-04-10T07:25:45.814Z,71.82
2019-04-10T07:26:46.581Z,72.44
2019-04-10T07:27:44.326Z,71.20
2019-04-10T07:28:46.420Z,71.41
2019-04-10T07:29:44.633Z,71.28
2019-04-10T07:30:44.294Z,69.97
2019-04-10T07:31:44.651Z,70.86
2019-04-10T07:32:47.238Z,70.35
2019-04-10T07:33:45.203Z,70.28
2019-04-10T07:34:44.536Z,70.56
2019-04-10T07:35:44.394Z,70.38
2019-04-10T07:36:45.481Z,70.25
2019-04-10T07:37:44.501Z,70.25
2019-04-10T07:38:44.210Z,70.45
2019-04-10T07:39:44.788Z,69.12
2019-04-10T07:40:44.982Z,69.32
2019-04-10T07:41:45.178Z,69.42
2019-04-10T07:42:44.223Z,69.94
2019-04-10T07:43:44.783Z,69.32
2019-04-10T07:44:44.158Z,70.04
2019-04-10T07:45:44.143Z,70.45
2019-04-10T07:46:44.118Z,70.25
2019-04-10T07:47:44.158Z,69.42
2019-04-10T07:48:44.095Z,70.86
2019-04-10T07:49:44.110Z,71.79
2019-04-10T07:50:45.554Z,70.73
2019-04-10T07:51:44.636Z,69.90
2019-04-10T07:52:44.052Z,69.29
2019-04-10T07:53:44.048Z,68.57
2019-04-10T07:54:44.940Z,69.39
2019-04-10T07:55:57.482Z,68.16
2019-04-10T07:56:45.012Z,68.37
2019-04-10T07:57:47.203Z,68.77
2019-04-10T07:58:44.061Z,69.29
2019-04-10T07:59:43.974Z,68.57
2019-04-10T08:00:44.886Z,68.54
2019-04-10T08:01:43.954Z,69.80
2019-04-10T08:02:43.945Z,69.39
2019-04-10T08:03:43.944Z,69.36
2019-04-10T08:04:43.916Z,68.26
2019-04-10T08:05:44.110Z,68.46
2019-04-10T08:06:44.716Z,68.95
2019-04-10T08:07:45.116Z,68.54
2019-04-10T08:08:44.794Z,68.02
2019-04-10T08:09:44.528Z,69.05
2019-04-10T08:10:45.080Z,69.56
2019-04-10T08:11:44.813Z,68.54
2019-04-10T08:12:49.042Z,68.30
2019-04-10T08:13:44.921Z,68.81
2019-04-10T08:14:44.273Z,67.38
2019-04-10T08:15:43.796Z,66.55
2019-04-10T08:16:43.807Z,67.89
2019-04-10T08:17:44.434Z,66.55
2019-04-10T08:18:43.761Z,67.48
2019-04-10T08:19:43.749Z,67.14
2019-04-10T08:20:43.741Z,67.96
2019-04-10T08:21:44.376Z,68.48
2019-04-10T08:22:44.802Z,67.24
2019-04-10T08:23:44.597Z,66.73
2019-04-10T08:24:45.854Z,68.06
2019-04-10T08:25:43.684Z,67.14
2019-04-10T08:26:43.717Z,67.14
2019-04-10T08:27:43.838Z,66.70
2019-04-10T08:28:43.655Z,67.00
2019-04-10T08:29:43.651Z,66.31
2019-04-10T08:30:43.930Z,67.14
2019-04-10T08:31:44.256Z,68.34
2019-04-10T08:32:54.726Z,66.80
2019-04-10T08:33:44.595Z,66.28
2019-04-10T08:34:44.277Z,67.21
2019-04-10T08:35:43.578Z,66.28
2019-04-10T08:36:43.671Z,66.16
2019-04-10T08:37:43.625Z,66.19
2019-04-10T08:38:43.540Z,65.98
2019-04-10T08:39:46.518Z,66.46
2019-04-10T08:40:43.910Z,66.67
2019-04-10T08:41:43.780Z,68.00
2019-04-10T08:42:46.034Z,66.36
2019-04-10T08:43:43.490Z,64.51
2019-04-10T08:44:44.481Z,64.92
2019-04-10T08:45:48.457Z,66.05
2019-04-10T08:46:44.449Z,67.59
2019-04-10T08:47:44.246Z,67.18
2019-04-10T08:48:43.488Z,67.25
2019-04-10T08:49:43.418Z,64.92
2019-04-10T08:50:44.015Z,65.20
2019-04-10T08:51:43.666Z,63.87
2019-04-10T08:52:44.430Z,64.31
2019-04-10T08:53:44.530Z,64.38
2019-04-10T08:54:43.368Z,64.25
2019-04-10T08:55:43.364Z,65.30
2019-04-10T08:56:43.343Z,65.17
2019-04-10T08:57:43.818Z,64.25
2019-04-10T08:58:43.381Z,64.45
2019-04-10T08:59:44.570Z,64.35
2019-04-10T09:00:43.306Z,64.56
2019-04-10T09:01:43.288Z,65.78
2019-04-10T09:02:44.383Z,65.14
2019-04-10T09:03:43.441Z,63.09
2019-04-10T09:04:43.260Z,63.91
2019-04-10T09:05:43.331Z,64.62
2019-04-10T09:06:43.970Z,64.01
2019-04-10T09:07:44.219Z,64.22
2019-04-10T09:08:43.607Z,65.04
2019-04-10T09:09:43.201Z,63.60
2019-04-10T09:10:43.191Z,63.50
2019-04-10T09:11:43.177Z,62.17
2019-04-10T09:12:43.165Z,62.85
2019-04-10T09:13:44.333Z,63.57
2019-04-10T09:14:43.451Z,62.04
2019-04-10T09:15:43.140Z,62.65
2019-04-10T09:16:43.191Z,62.45
2019-04-10T09:17:43.834Z,62.65
2019-04-10T09:18:43.294Z,62.65
2019-04-10T09:19:43.101Z,62.35
2019-04-10T09:20:43.115Z,62.35
2019-04-10T09:21:43.713Z,63.47
2019-04-10T09:23:07.517Z,62.35
2019-04-10T09:23:50.479Z,62.14
2019-04-10T09:24:44.632Z,62.24
2019-04-10T09:25:43.703Z,62.55
2019-04-10T09:26:43.093Z,62.32
2019-04-10T09:27:44.178Z,62.83
2019-04-10T09:28:43.013Z,61.43
2019-04-10T09:29:43.001Z,61.83
2019-04-10T09:30:43.013Z,59.68
2019-04-10T09:31:43.941Z,61.60
2019-04-10T09:32:42.952Z,61.73
2019-04-10T09:33:43.242Z,60.58
2019-04-10T09:34:45.539Z,60.58
2019-04-10T09:35:42.941Z,59.86
2019-04-10T09:36:43.736Z,59.96
2019-04-10T09:37:43.052Z,60.17
2019-04-10T09:38:43.982Z,60.06
2019-04-10T09:39:43.426Z,60.06
2019-04-10T09:40:42.932Z,62.01
2019-04-10T09:41:43.915Z,62.18
2019-04-10T09:42:43.809Z,62.52
2019-04-10T09:43:42.856Z,62.39
2019-04-10T09:44:44.648Z,62.70
2019-04-10T09:45:43.732Z,62.70
2019-04-10T09:46:42.933Z,62.39
2019-04-10T09:47:43.838Z,63.48
2019-04-10T09:48:42.769Z,62.08
2019-04-10T09:49:46.161Z,61.03
2019-04-10T09:50:43.797Z,61.34
2019-04-10T09:51:42.757Z,62.16
2019-04-10T09:52:43.925Z,60.93
2019-04-10T09:53:43.351Z,60.83
2019-04-10T09:54:42.746Z,61.24
2019-04-10T09:55:42.710Z,61.03
2019-04-10T09:56:42.782Z,61.51
2019-04-10T09:57:47.574Z,58.96
2019-04-10T09:58:42.769Z,59.37
2019-04-10T09:59:42.799Z,58.65
2019-04-10T10:00:43.665Z,59.57
2019-04-10T10:01:42.632Z,59.37
2019-04-10T10:02:42.620Z,58.65
2019-04-10T10:03:42.614Z,59.47
2019-04-10T10:04:43.791Z,58.86
2019-04-10T10:05:42.641Z,58.22
2019-04-10T10:06:43.235Z,57.60
2019-04-10T10:07:43.067Z,58.32
2019-04-10T10:08:43.678Z,58.32
2019-04-10T10:09:43.115Z,57.20
2019-04-10T10:10:42.548Z,58.01
2019-04-10T10:11:42.814Z,58.11
2019-04-10T10:12:42.940Z,57.81
2019-04-10T10:13:42.591Z,56.79
2019-04-10T10:14:42.500Z,58.11
2019-04-10T10:15:43.204Z,57.40
2019-04-10T10:16:42.477Z,56.86
2019-04-10T10:17:42.488Z,59.31
2019-04-10T10:18:43.582Z,59.41
2019-04-10T10:19:42.672Z,59.62
2019-04-10T10:20:42.441Z,57.65
2019-04-10T10:21:42.782Z,57.21
2019-04-10T10:22:42.416Z,59.69
2019-04-10T10:23:43.198Z,58.31
2019-04-10T10:24:42.601Z,57.29
2019-04-10T10:25:43.558Z,54.61
2019-04-10T10:26:44.577Z,54.51
2019-04-10T10:27:42.660Z,54.39
2019-04-10T10:28:42.952Z,53.55
2019-04-10T10:29:42.345Z,56.20
2019-04-10T10:30:42.325Z,55.86
2019-04-10T10:31:42.411Z,55.05
2019-04-10T10:32:43.509Z,53.19
2019-04-10T10:33:42.284Z,52.45
2019-04-10T10:34:42.794Z,52.25
2019-04-10T10:35:43.176Z,51.64
2019-04-10T10:36:46.197Z,49.61
2019-04-10T10:37:43.251Z,50.73
2019-04-10T10:38:43.279Z,50.70
2019-04-10T10:39:43.078Z,50.29
2019-04-10T10:40:42.234Z,50.60
2019-04-10T10:41:42.631Z,51.79
2019-04-10T10:42:42.184Z,51.79
2019-04-10T10:43:42.616Z,50.68
2019-04-10T10:44:42.495Z,51.39
2019-04-10T10:45:42.885Z,50.58
2019-04-10T10:46:42.149Z,52.08
2019-04-10T10:47:42.199Z,50.35
2019-04-10T10:48:42.118Z,50.86
2019-04-10T10:49:42.366Z,50.02
2019-04-10T10:50:42.093Z,50.23
2019-04-10T10:51:42.613Z,49.08
2019-04-10T10:52:42.075Z,48.88
2019-04-10T10:53:42.051Z,50.31
2019-04-10T10:54:43.149Z,48.48
2019-04-10T10:55:42.104Z,49.90
2019-04-10T10:56:42.584Z,50.18
2019-04-10T10:57:42.027Z,49.44
2019-04-10T10:58:42.018Z,48.76
2019-04-10T10:59:42.003Z,49.85
2019-04-10T11:00:43.069Z,48.23
2019-04-10T11:01:42.225Z,49.44
2019-04-10T11:02:41.969Z,46.69
2019-04-10T11:03:42.533Z,48.11
2019-04-10T11:04:41.955Z,49.42
2019-04-10T11:05:42.318Z,46.99
2019-04-10T11:06:51.762Z,44.56
2019-04-10T11:07:43.014Z,45.78
2019-04-10T11:08:41.912Z,47.90
2019-04-10T11:09:41.985Z,46.38
2019-04-10T11:10:42.760Z,45.98
2019-04-10T11:11:41.863Z,45.87
2019-04-10T11:12:42.371Z,46.79
2019-04-10T11:13:43.141Z,46.38
2019-04-10T11:14:41.849Z,44.46
2019-04-10T11:15:45.405Z,46.36
2019-04-10T11:16:41.869Z,45.78
2019-04-10T11:17:42.159Z,46.08
2019-04-10T11:18:42.523Z,44.95
2019-04-10T11:19:41.785Z,43.95
2019-04-10T11:20:41.863Z,43.95
2019-04-10T11:21:42.947Z,45.37
2019-04-10T11:22:42.342Z,46.18
2019-04-10T11:23:42.431Z,44.66
2019-04-10T11:24:43.412Z,46.79
2019-04-10T11:25:41.786Z,46.18
2019-04-10T11:26:42.651Z,46.18
2019-04-10T11:27:42.106Z,43.52
2019-04-10T11:28:43.240Z,46.56
2019-04-10T11:29:42.676Z,43.63
2019-04-10T11:30:42.570Z,43.23
2019-04-10T11:31:41.764Z,43.73
2019-04-10T11:32:42.244Z,42.52
2019-04-10T11:33:41.619Z,46.87
2019-04-10T11:34:42.650Z,45.96
2019-04-10T11:35:41.589Z,44.32
2019-04-10T11:36:42.563Z,44.12
2019-04-10T11:37:44.775Z,45.73
2019-04-10T11:38:44.946Z,44.12
2019-04-10T11:39:43.965Z,45.94
2019-04-10T11:40:41.988Z,45.81
2019-04-10T11:41:43.271Z,42.98
2019-04-10T11:42:42.868Z,40.45
2019-04-10T11:43:41.731Z,43.79
2019-04-10T11:44:44.837Z,42.37
2019-04-10T11:45:45.619Z,42.55
2019-04-10T11:46:43.840Z,42.35
2019-04-10T11:47:42.568Z,40.05
2019-04-10T11:48:44.692Z,42.68
2019-04-10T11:50:44.046Z,41.85
2019-04-10T11:51:41.413Z,42.05
2019-04-10T11:52:49.015Z,42.05
2019-04-10T11:53:47.223Z,42.55
2019-04-10T11:54:44.898Z,42.46
2019-04-10T11:56:43.066Z,43.97
2019-04-10T11:57:42.116Z,41.44
2019-04-10T11:58:49.467Z,40.11
2019-04-10T11:59:44.759Z,40.13
2019-04-10T12:00:50.562Z,42.86
2019-04-10T12:01:43.940Z,42.55
2019-04-10T12:02:44.989Z,44.17
2019-04-10T12:03:48.109Z,40.03
2019-04-10T12:04:49.220Z,41.52
2019-04-10T12:05:42.415Z,41.12
2019-04-10T12:06:43.094Z,39.42
2019-04-10T12:08:12.207Z,41.83
2019-04-10T12:09:04.483Z,40.72
2019-04-10T12:11:42.191Z,41.22
2019-04-10T12:12:41.709Z,41.73
2019-04-10T12:13:41.198Z,41.32
2019-04-10T12:14:41.155Z,42.84
2019-04-10T12:15:41.154Z,41.63
2019-04-10T12:16:41.135Z,40.31
2019-04-10T12:17:42.987Z,39.50
2019-04-10T12:18:41.173Z,40.72
2019-04-10T12:19:41.128Z,41.42
2019-04-10T12:20:41.125Z,40.61
2019-04-10T12:21:42.049Z,40.72
2019-04-10T12:22:41.095Z,40.41
2019-04-10T12:23:41.058Z,39.52
2019-04-10T12:24:41.070Z,40.84
2019-04-10T12:25:41.032Z,40.64
2019-04-10T12:26:42.253Z,39.52
2019-04-10T12:27:41.199Z,39.42
2019-04-10T12:28:42.228Z,39.04
2019-04-10T12:29:41.024Z,40.86
2019-04-10T12:30:41.699Z,42.58
2019-04-10T12:31:41.923Z,41.16
2019-04-10T12:32:41.094Z,41.95
2019-04-10T12:33:40.982Z,39.22
2019-04-10T12:34:40.940Z,39.42
2019-04-10T12:35:40.945Z,39.02
2019-04-10T12:36:40.917Z,38.21
2019-04-10T12:37:41.255Z,38.92
2019-04-10T12:38:41.582Z,38.21
2019-04-10T12:39:41.248Z,41.55
2019-04-10T12:40:40.901Z,40.94
2019-04-10T12:41:41.610Z,41.35
2019-04-10T12:42:40.861Z,39.32
2019-04-10T12:43:41.137Z,39.73
2019-04-10T12:44:40.955Z,38.82
2019-04-10T12:45:40.848Z,39.73
2019-04-10T12:46:41.510Z,42.17
2019-04-10T12:47:41.709Z,39.64
2019-04-10T12:48:41.100Z,39.34
2019-04-10T12:49:41.455Z,40.86
2019-04-10T12:50:41.285Z,39.84
2019-04-10T12:51:41.543Z,41.06
2019-04-10T12:52:40.987Z,39.95
2019-04-10T12:53:40.736Z,39.86
2019-04-10T12:54:40.830Z,41.69
2019-04-10T12:55:41.797Z,40.98
2019-04-10T12:56:40.697Z,40.09